sensor_id;sensor_type;location;lat;lon;timestamp;P1;durP1;ratioP1;P2;durP2;ratioP2
13816;SDS011;6979;52.116;5.286;2023-05-10T00:07:11;18.73;;;16.83;;
13816;SDS011;6979;52.116;5.286;2023-05-10T00:09:38;21.33;;;19.13;;
13816;SDS011;6979;52.116;5.286;2023-05-10T00:12:06;19.57;;;17.47;;
13816;SDS011;6979;52.116;5.286;2023-05-10T00:14:36;20.17;;;16.77;;
13816;SDS011;6979;52.116;5.286;2023-05-10T00:17:07;21.87;;;19.80;;
13816;SDS011;6979;52.116;5.286;2023-05-10T00:19:37;22.33;;;20.13;;
13816;SDS011;6979;52.116;5.286;2023-05-10T00:33:23;21.93;;;19.80;;
13816;SDS011;6979;52.116;5.286;2023-05-10T00:36:49;22.03;;;19.83;;
13816;SDS011;6979;52.116;5.286;2023-05-10T00:39:54;24.03;;;21.63;;
13816;SDS011;6979;52.116;5.286;2023-05-10T00:42:54;22.80;;;20.63;;
13816;SDS011;6979;52.116;5.286;2023-05-10T00:45:24;22.63;;;20.27;;
13816;SDS011;6979;52.116;5.286;2023-05-10T01:07:28;24.63;;;22.03;;
13816;SDS011;6979;52.116;5.286;2023-05-10T01:10:07;27.10;;;24.20;;
13816;SDS011;6979;52.116;5.286;2023-05-10T01:12:37;24.93;;;22.00;;
13816;SDS011;6979;52.116;5.286;2023-05-10T01:15:38;22.93;;;20.53;;
13816;SDS011;6979;52.116;5.286;2023-05-10T01:18:06;26.63;;;23.73;;
13816;SDS011;6979;52.116;5.286;2023-05-10T01:57:19;28.27;;;22.53;;
13816;SDS011;6979;52.116;5.286;2023-05-10T02:07:59;27.10;;;22.20;;
13816;SDS011;6979;52.116;5.286;2023-05-10T02:10:30;21.90;;;19.63;;
13816;SDS011;6979;52.116;5.286;2023-05-10T02:13:02;27.27;;;22.83;;
13816;SDS011;6979;52.116;5.286;2023-05-10T02:15:32;32.03;;;26.67;;
13816;SDS011;6979;52.116;5.286;2023-05-10T02:18:02;30.97;;;24.33;;
13816;SDS011;6979;52.116;5.286;2023-05-10T02:20:32;27.03;;;22.67;;
13816;SDS011;6979;52.116;5.286;2023-05-10T02:26:06;26.43;;;23.40;;
13816;SDS011;6979;52.116;5.286;2023-05-10T02:34:15;31.87;;;25.57;;
13816;SDS011;6979;52.116;5.286;2023-05-10T02:36:57;30.60;;;26.03;;
13816;SDS011;6979;52.116;5.286;2023-05-10T02:39:28;27.53;;;23.03;;
13816;SDS011;6979;52.116;5.286;2023-05-10T02:41:58;29.80;;;22.57;;
13816;SDS011;6979;52.116;5.286;2023-05-10T02:44:29;33.27;;;23.73;;
13816;SDS011;6979;52.116;5.286;2023-05-10T02:46:56;31.00;;;23.43;;
13816;SDS011;6979;52.116;5.286;2023-05-10T02:49:26;31.67;;;23.87;;
13816;SDS011;6979;52.116;5.286;2023-05-10T02:51:55;34.50;;;23.83;;
13816;SDS011;6979;52.116;5.286;2023-05-10T02:54:27;31.57;;;22.50;;
13816;SDS011;6979;52.116;5.286;2023-05-10T02:57:00;29.50;;;21.27;;
13816;SDS011;6979;52.116;5.286;2023-05-10T02:59:30;31.27;;;23.63;;
13816;SDS011;6979;52.116;5.286;2023-05-10T03:01:57;34.00;;;24.00;;
13816;SDS011;6979;52.116;5.286;2023-05-10T03:04:27;39.47;;;27.67;;
13816;SDS011;6979;52.116;5.286;2023-05-10T03:08:14;38.27;;;24.43;;
13816;SDS011;6979;52.116;5.286;2023-05-10T03:10:12;33.27;;;25.13;;
13816;SDS011;6979;52.116;5.286;2023-05-10T03:12:46;37.70;;;24.57;;
13816;SDS011;6979;52.116;5.286;2023-05-10T03:15:25;35.43;;;25.17;;
13816;SDS011;6979;52.116;5.286;2023-05-10T03:18:00;37.70;;;24.20;;
13816;SDS011;6979;52.116;5.286;2023-05-10T03:20:33;36.27;;;24.33;;
13816;SDS011;6979;52.116;5.286;2023-05-10T03:23:04;35.50;;;25.43;;
13816;SDS011;6979;52.116;5.286;2023-05-10T03:25:38;35.87;;;24.23;;
13816;SDS011;6979;52.116;5.286;2023-05-10T03:28:08;34.60;;;25.07;;
13816;SDS011;6979;52.116;5.286;2023-05-10T03:30:36;36.77;;;27.20;;
13816;SDS011;6979;52.116;5.286;2023-05-10T03:33:27;32.20;;;24.23;;
13816;SDS011;6979;52.116;5.286;2023-05-10T03:35:56;37.53;;;27.07;;
13816;SDS011;6979;52.116;5.286;2023-05-10T03:38:24;36.70;;;26.40;;
13816;SDS011;6979;52.116;5.286;2023-05-10T03:40:51;32.97;;;25.00;;
13816;SDS011;6979;52.116;5.286;2023-05-10T03:43:18;34.43;;;25.10;;
13816;SDS011;6979;52.116;5.286;2023-05-10T03:45:45;35.57;;;26.10;;
13816;SDS011;6979;52.116;5.286;2023-05-10T03:48:24;41.03;;;28.70;;
13816;SDS011;6979;52.116;5.286;2023-05-10T03:50:57;37.40;;;28.70;;
13816;SDS011;6979;52.116;5.286;2023-05-10T03:53:27;36.73;;;26.30;;
13816;SDS011;6979;52.116;5.286;2023-05-10T03:55:54;30.70;;;23.87;;
13816;SDS011;6979;52.116;5.286;2023-05-10T03:58:21;34.47;;;24.03;;
13816;SDS011;6979;52.116;5.286;2023-05-10T04:00:47;38.63;;;30.30;;
13816;SDS011;6979;52.116;5.286;2023-05-10T04:03:14;39.07;;;29.17;;
13816;SDS011;6979;52.116;5.286;2023-05-10T04:05:42;40.00;;;30.23;;
13816;SDS011;6979;52.116;5.286;2023-05-10T04:08:10;39.90;;;29.17;;
13816;SDS011;6979;52.116;5.286;2023-05-10T04:10:37;38.23;;;26.80;;
13816;SDS011;6979;52.116;5.286;2023-05-10T04:13:04;33.77;;;25.03;;
13816;SDS011;6979;52.116;5.286;2023-05-10T04:15:31;35.10;;;26.97;;
13816;SDS011;6979;52.116;5.286;2023-05-10T04:17:58;32.80;;;25.23;;
13816;SDS011;6979;52.116;5.286;2023-05-10T04:23:08;31.30;;;22.40;;
13816;SDS011;6979;52.116;5.286;2023-05-10T04:25:43;30.63;;;23.60;;
13816;SDS011;6979;52.116;5.286;2023-05-10T04:32:43;36.80;;;27.50;;
13816;SDS011;6979;52.116;5.286;2023-05-10T04:35:12;36.83;;;26.93;;
13816;SDS011;6979;52.116;5.286;2023-05-10T04:38:27;34.27;;;26.10;;
13816;SDS011;6979;52.116;5.286;2023-05-10T04:41:19;37.00;;;28.40;;
13816;SDS011;6979;52.116;5.286;2023-05-10T04:43:54;35.23;;;26.00;;
13816;SDS011;6979;52.116;5.286;2023-05-10T04:46:28;33.23;;;25.97;;
13816;SDS011;6979;52.116;5.286;2023-05-10T04:49:06;35.47;;;24.10;;
13816;SDS011;6979;52.116;5.286;2023-05-10T04:54:29;38.60;;;28.30;;
13816;SDS011;6979;52.116;5.286;2023-05-10T04:56:58;33.33;;;24.70;;
13816;SDS011;6979;52.116;5.286;2023-05-10T05:00:03;35.50;;;24.53;;
13816;SDS011;6979;52.116;5.286;2023-05-10T05:02:46;29.90;;;23.60;;
13816;SDS011;6979;52.116;5.286;2023-05-10T05:05:13;31.87;;;24.43;;
13816;SDS011;6979;52.116;5.286;2023-05-10T05:07:40;29.97;;;22.17;;
13816;SDS011;6979;52.116;5.286;2023-05-10T05:10:08;29.33;;;23.57;;
13816;SDS011;6979;52.116;5.286;2023-05-10T05:15:18;30.37;;;24.30;;
13816;SDS011;6979;52.116;5.286;2023-05-10T05:17:45;31.17;;;24.33;;
13816;SDS011;6979;52.116;5.286;2023-05-10T05:20:18;31.37;;;24.30;;
13816;SDS011;6979;52.116;5.286;2023-05-10T05:22:45;34.63;;;28.07;;
13816;SDS011;6979;52.116;5.286;2023-05-10T05:25:18;28.43;;;22.40;;
13816;SDS011;6979;52.116;5.286;2023-05-10T05:27:45;29.73;;;23.57;;
13816;SDS011;6979;52.116;5.286;2023-05-10T05:30:20;28.00;;;23.40;;
13816;SDS011;6979;52.116;5.286;2023-05-10T05:32:47;26.30;;;21.57;;
13816;SDS011;6979;52.116;5.286;2023-05-10T05:35:14;23.13;;;20.63;;
13816;SDS011;6979;52.116;5.286;2023-05-10T05:37:41;29.10;;;23.20;;
13816;SDS011;6979;52.116;5.286;2023-05-10T05:40:11;27.30;;;22.60;;
13816;SDS011;6979;52.116;5.286;2023-05-10T05:42:41;26.80;;;22.70;;
13816;SDS011;6979;52.116;5.286;2023-05-10T05:45:10;25.83;;;21.03;;
13816;SDS011;6979;52.116;5.286;2023-05-10T05:47:42;24.37;;;20.17;;
13816;SDS011;6979;52.116;5.286;2023-05-10T05:50:09;22.47;;;19.87;;
13816;SDS011;6979;52.116;5.286;2023-05-10T05:52:36;24.97;;;22.30;;
13816;SDS011;6979;52.116;5.286;2023-05-10T05:58:12;27.23;;;21.70;;
13816;SDS011;6979;52.116;5.286;2023-05-10T06:00:40;22.10;;;18.30;;
13816;SDS011;6979;52.116;5.286;2023-05-10T06:03:39;24.30;;;19.47;;
13816;SDS011;6979;52.116;5.286;2023-05-10T06:08:45;22.13;;;18.80;;
13816;SDS011;6979;52.116;5.286;2023-05-10T06:14:59;24.13;;;19.23;;
13816;SDS011;6979;52.116;5.286;2023-05-10T06:17:28;24.73;;;20.03;;
13816;SDS011;6979;52.116;5.286;2023-05-10T06:24:17;21.40;;;18.50;;
13816;SDS011;6979;52.116;5.286;2023-05-10T06:26:44;21.10;;;17.43;;
13816;SDS011;6979;52.116;5.286;2023-05-10T06:29:11;21.37;;;17.33;;
13816;SDS011;6979;52.116;5.286;2023-05-10T06:31:40;18.10;;;15.63;;
13816;SDS011;6979;52.116;5.286;2023-05-10T06:34:11;17.93;;;15.90;;
13816;SDS011;6979;52.116;5.286;2023-05-10T06:36:38;16.73;;;15.00;;
13816;SDS011;6979;52.116;5.286;2023-05-10T06:39:09;16.10;;;14.37;;
13816;SDS011;6979;52.116;5.286;2023-05-10T06:41:44;15.70;;;14.10;;
13816;SDS011;6979;52.116;5.286;2023-05-10T06:44:20;14.37;;;12.87;;
13816;SDS011;6979;52.116;5.286;2023-05-10T06:46:47;14.20;;;12.80;;
13816;SDS011;6979;52.116;5.286;2023-05-10T06:49:16;14.13;;;12.37;;
13816;SDS011;6979;52.116;5.286;2023-05-10T06:51:43;13.57;;;12.20;;
13816;SDS011;6979;52.116;5.286;2023-05-10T06:54:25;12.83;;;10.97;;
13816;SDS011;6979;52.116;5.286;2023-05-10T06:56:52;12.60;;;11.40;;
13816;SDS011;6979;52.116;5.286;2023-05-10T07:02:09;12.80;;;11.50;;
13816;SDS011;6979;52.116;5.286;2023-05-10T07:04:45;11.03;;;9.90;;
13816;SDS011;6979;52.116;5.286;2023-05-10T07:07:28;12.00;;;10.73;;
13816;SDS011;6979;52.116;5.286;2023-05-10T07:09:55;12.13;;;10.70;;
13816;SDS011;6979;52.116;5.286;2023-05-10T07:12:22;12.47;;;11.07;;
13816;SDS011;6979;52.116;5.286;2023-05-10T07:14:50;11.27;;;10.13;;
13816;SDS011;6979;52.116;5.286;2023-05-10T08:07:22;11.00;;;10.03;;
13816;SDS011;6979;52.116;5.286;2023-05-10T08:10:07;10.93;;;9.83;;
13816;SDS011;6979;52.116;5.286;2023-05-10T08:15:18;12.77;;;11.47;;
13816;SDS011;6979;52.116;5.286;2023-05-10T08:49:28;10.20;;;9.30;;
13816;SDS011;6979;52.116;5.286;2023-05-10T08:51:58;11.10;;;10.03;;
13816;SDS011;6979;52.116;5.286;2023-05-10T08:54:44;13.17;;;11.87;;
13816;SDS011;6979;52.116;5.286;2023-05-10T09:30:33;9.17;;;8.37;;
13816;SDS011;6979;52.116;5.286;2023-05-10T09:33:00;9.23;;;8.43;;
13816;SDS011;6979;52.116;5.286;2023-05-10T09:35:28;10.87;;;9.87;;
13816;SDS011;6979;52.116;5.286;2023-05-10T09:37:56;11.47;;;10.43;;
13816;SDS011;6979;52.116;5.286;2023-05-10T09:40:26;13.20;;;12.10;;
13816;SDS011;6979;52.116;5.286;2023-05-10T09:42:55;12.60;;;11.50;;
13816;SDS011;6979;52.116;5.286;2023-05-10T09:45:23;11.90;;;10.70;;
13816;SDS011;6979;52.116;5.286;2023-05-10T09:47:54;12.27;;;11.27;;
13816;SDS011;6979;52.116;5.286;2023-05-10T09:50:22;12.10;;;11.00;;
13816;SDS011;6979;52.116;5.286;2023-05-10T09:53:10;11.97;;;10.87;;
13816;SDS011;6979;52.116;5.286;2023-05-10T09:55:42;11.97;;;10.73;;
13816;SDS011;6979;52.116;5.286;2023-05-10T09:58:14;11.93;;;10.80;;
13816;SDS011;6979;52.116;5.286;2023-05-10T10:00:45;12.13;;;11.03;;
13816;SDS011;6979;52.116;5.286;2023-05-10T10:03:18;10.63;;;9.60;;
13816;SDS011;6979;52.116;5.286;2023-05-10T10:05:46;11.17;;;10.17;;
13816;SDS011;6979;52.116;5.286;2023-05-10T10:08:14;10.87;;;9.97;;
13816;SDS011;6979;52.116;5.286;2023-05-10T10:10:42;10.47;;;9.47;;
13816;SDS011;6979;52.116;5.286;2023-05-10T10:13:09;10.03;;;9.13;;
13816;SDS011;6979;52.116;5.286;2023-05-10T10:15:36;9.53;;;8.53;;
13816;SDS011;6979;52.116;5.286;2023-05-10T10:18:03;8.77;;;8.07;;
13816;SDS011;6979;52.116;5.286;2023-05-10T10:20:35;9.60;;;8.33;;
13816;SDS011;6979;52.116;5.286;2023-05-10T10:23:05;10.03;;;9.13;;
13816;SDS011;6979;52.116;5.286;2023-05-10T10:25:32;8.57;;;7.83;;
13816;SDS011;6979;52.116;5.286;2023-05-10T10:28:02;9.77;;;8.97;;
13816;SDS011;6979;52.116;5.286;2023-05-10T10:30:39;9.10;;;8.30;;
13816;SDS011;6979;52.116;5.286;2023-05-10T10:36:15;9.20;;;8.40;;
13816;SDS011;6979;52.116;5.286;2023-05-10T10:38:55;8.50;;;7.80;;
13816;SDS011;6979;52.116;5.286;2023-05-10T10:41:27;8.43;;;7.73;;
13816;SDS011;6979;52.116;5.286;2023-05-10T10:47:07;8.20;;;7.50;;
13816;SDS011;6979;52.116;5.286;2023-05-10T10:49:38;6.97;;;6.47;;
13816;SDS011;6979;52.116;5.286;2023-05-10T10:52:14;7.23;;;6.60;;
13816;SDS011;6979;52.116;5.286;2023-05-10T10:54:52;7.87;;;7.27;;
13816;SDS011;6979;52.116;5.286;2023-05-10T10:57:20;6.87;;;6.30;;
13816;SDS011;6979;52.116;5.286;2023-05-10T10:59:48;6.23;;;5.63;;
13816;SDS011;6979;52.116;5.286;2023-05-10T11:02:34;5.93;;;5.33;;
13816;SDS011;6979;52.116;5.286;2023-05-10T11:05:23;6.27;;;5.80;;
13816;SDS011;6979;52.116;5.286;2023-05-10T11:07:53;8.03;;;6.27;;
13816;SDS011;6979;52.116;5.286;2023-05-10T11:10:21;6.37;;;5.77;;
13816;SDS011;6979;52.116;5.286;2023-05-10T11:12:52;6.30;;;5.90;;
13816;SDS011;6979;52.116;5.286;2023-05-10T11:15:28;6.00;;;5.50;;
13816;SDS011;6979;52.116;5.286;2023-05-10T11:17:55;6.70;;;6.10;;
13816;SDS011;6979;52.116;5.286;2023-05-10T11:20:22;7.13;;;6.53;;
13816;SDS011;6979;52.116;5.286;2023-05-10T11:23:10;5.47;;;5.10;;
13816;SDS011;6979;52.116;5.286;2023-05-10T11:25:42;6.17;;;5.67;;
13816;SDS011;6979;52.116;5.286;2023-05-10T11:28:13;5.77;;;5.33;;
13816;SDS011;6979;52.116;5.286;2023-05-10T11:30:40;6.27;;;5.77;;
13816;SDS011;6979;52.116;5.286;2023-05-10T11:33:09;6.13;;;5.60;;
13816;SDS011;6979;52.116;5.286;2023-05-10T11:35:41;5.40;;;4.90;;
13816;SDS011;6979;52.116;5.286;2023-05-10T11:38:10;5.80;;;5.30;;
13816;SDS011;6979;52.116;5.286;2023-05-10T11:40:38;6.10;;;5.60;;
13816;SDS011;6979;52.116;5.286;2023-05-10T11:43:06;5.97;;;5.47;;
13816;SDS011;6979;52.116;5.286;2023-05-10T11:45:35;6.03;;;5.53;;
13816;SDS011;6979;52.116;5.286;2023-05-10T11:48:02;4.77;;;4.37;;
13816;SDS011;6979;52.116;5.286;2023-05-10T11:50:39;4.60;;;4.20;;
13816;SDS011;6979;52.116;5.286;2023-05-10T11:53:07;4.47;;;4.07;;
13816;SDS011;6979;52.116;5.286;2023-05-10T11:55:37;4.50;;;4.10;;
13816;SDS011;6979;52.116;5.286;2023-05-10T11:58:04;4.70;;;4.30;;
13816;SDS011;6979;52.116;5.286;2023-05-10T12:00:32;4.23;;;3.93;;
13816;SDS011;6979;52.116;5.286;2023-05-10T12:03:00;4.00;;;3.70;;
13816;SDS011;6979;52.116;5.286;2023-05-10T12:05:31;4.37;;;4.07;;
13816;SDS011;6979;52.116;5.286;2023-05-10T12:08:14;4.10;;;3.80;;
13816;SDS011;6979;52.116;5.286;2023-05-10T12:10:41;4.33;;;3.97;;
13816;SDS011;6979;52.116;5.286;2023-05-10T12:13:11;4.93;;;4.53;;
13816;SDS011;6979;52.116;5.286;2023-05-10T12:15:39;4.70;;;4.40;;
13816;SDS011;6979;52.116;5.286;2023-05-10T12:18:08;4.20;;;3.90;;
13816;SDS011;6979;52.116;5.286;2023-05-10T12:20:36;4.00;;;3.73;;
13816;SDS011;6979;52.116;5.286;2023-05-10T12:23:04;3.87;;;3.60;;
13816;SDS011;6979;52.116;5.286;2023-05-10T12:25:36;3.63;;;3.43;;
13816;SDS011;6979;52.116;5.286;2023-05-10T12:28:04;3.67;;;3.37;;
13816;SDS011;6979;52.116;5.286;2023-05-10T12:30:33;3.60;;;3.40;;
13816;SDS011;6979;52.116;5.286;2023-05-10T12:33:02;3.57;;;3.37;;
13816;SDS011;6979;52.116;5.286;2023-05-10T12:35:43;4.03;;;3.10;;
13816;SDS011;6979;52.116;5.286;2023-05-10T12:38:24;2.73;;;2.53;;
13816;SDS011;6979;52.116;5.286;2023-05-10T13:01:04;5.77;;;5.37;;
13816;SDS011;6979;52.116;5.286;2023-05-10T13:08:33;7.37;;;6.67;;
13816;SDS011;6979;52.116;5.286;2023-05-10T13:12:18;7.33;;;6.63;;
13816;SDS011;6979;52.116;5.286;2023-05-10T13:23:54;6.80;;;6.13;;
13816;SDS011;6979;52.116;5.286;2023-05-10T13:26:21;7.73;;;6.97;;
13816;SDS011;6979;52.116;5.286;2023-05-10T13:28:48;7.67;;;6.93;;
13816;SDS011;6979;52.116;5.286;2023-05-10T13:31:16;7.40;;;6.60;;
13816;SDS011;6979;52.116;5.286;2023-05-10T13:33:44;8.00;;;7.20;;
13816;SDS011;6979;52.116;5.286;2023-05-10T13:36:11;8.27;;;7.50;;
13816;SDS011;6979;52.116;5.286;2023-05-10T13:38:38;8.63;;;7.77;;
13816;SDS011;6979;52.116;5.286;2023-05-10T14:44:48;8.90;;;8.00;;
13816;SDS011;6979;52.116;5.286;2023-05-10T14:53:49;8.40;;;7.60;;
13816;SDS011;6979;52.116;5.286;2023-05-10T14:56:45;8.77;;;7.87;;
13816;SDS011;6979;52.116;5.286;2023-05-10T14:59:35;7.30;;;6.60;;
13816;SDS011;6979;52.116;5.286;2023-05-10T16:32:09;5.57;;;5.07;;
13816;SDS011;6979;52.116;5.286;2023-05-10T17:20:21;8.03;;;7.33;;
13816;SDS011;6979;52.116;5.286;2023-05-10T17:23:30;6.97;;;6.47;;
13816;SDS011;6979;52.116;5.286;2023-05-10T17:44:41;6.20;;;5.67;;
13816;SDS011;6979;52.116;5.286;2023-05-10T17:47:52;7.10;;;6.50;;
13816;SDS011;6979;52.116;5.286;2023-05-10T17:53:08;7.03;;;6.53;;
13816;SDS011;6979;52.116;5.286;2023-05-10T17:59:13;7.53;;;6.93;;
13816;SDS011;6979;52.116;5.286;2023-05-10T18:08:03;7.00;;;6.37;;
13816;SDS011;6979;52.116;5.286;2023-05-10T18:10:40;7.17;;;6.53;;
13816;SDS011;6979;52.116;5.286;2023-05-10T18:19:39;7.20;;;6.70;;
13816;SDS011;6979;52.116;5.286;2023-05-10T20:00:10;9.50;;;8.60;;
13816;SDS011;6979;52.116;5.286;2023-05-10T20:24:54;10.83;;;9.83;;
13816;SDS011;6979;52.116;5.286;2023-05-10T20:27:22;10.47;;;9.47;;
13816;SDS011;6979;52.116;5.286;2023-05-10T20:29:54;11.47;;;10.27;;
13816;SDS011;6979;52.116;5.286;2023-05-10T20:32:22;10.83;;;9.83;;
13816;SDS011;6979;52.116;5.286;2023-05-10T20:34:49;10.87;;;9.80;;
13816;SDS011;6979;52.116;5.286;2023-05-10T20:37:15;11.90;;;10.70;;
13816;SDS011;6979;52.116;5.286;2023-05-10T20:39:42;11.20;;;10.17;;
13816;SDS011;6979;52.116;5.286;2023-05-10T20:42:17;11.63;;;10.47;;
13816;SDS011;6979;52.116;5.286;2023-05-10T20:44:45;11.10;;;10.00;;
13816;SDS011;6979;52.116;5.286;2023-05-10T20:47:15;12.03;;;10.70;;
13816;SDS011;6979;52.116;5.286;2023-05-10T20:49:47;11.20;;;10.10;;
13816;SDS011;6979;52.116;5.286;2023-05-10T20:52:15;10.83;;;9.73;;
13816;SDS011;6979;52.116;5.286;2023-05-10T20:54:42;12.73;;;11.50;;
13816;SDS011;6979;52.116;5.286;2023-05-10T20:57:09;11.77;;;10.63;;
13816;SDS011;6979;52.116;5.286;2023-05-10T20:59:39;11.83;;;10.63;;
13816;SDS011;6979;52.116;5.286;2023-05-10T21:02:06;11.43;;;10.23;;
13816;SDS011;6979;52.116;5.286;2023-05-10T21:04:32;13.33;;;11.90;;
13816;SDS011;6979;52.116;5.286;2023-05-10T21:06:59;11.50;;;10.43;;
13816;SDS011;6979;52.116;5.286;2023-05-10T21:09:26;11.20;;;10.13;;
13816;SDS011;6979;52.116;5.286;2023-05-10T21:11:53;13.00;;;11.67;;
13816;SDS011;6979;52.116;5.286;2023-05-10T21:14:20;11.77;;;10.73;;
13816;SDS011;6979;52.116;5.286;2023-05-10T21:16:48;12.93;;;11.50;;
13816;SDS011;6979;52.116;5.286;2023-05-10T21:19:15;13.00;;;11.70;;
13816;SDS011;6979;52.116;5.286;2023-05-10T21:21:42;12.67;;;11.47;;
13816;SDS011;6979;52.116;5.286;2023-05-10T21:24:10;13.40;;;12.10;;
13816;SDS011;6979;52.116;5.286;2023-05-10T21:26:37;12.80;;;11.20;;
13816;SDS011;6979;52.116;5.286;2023-05-10T21:29:04;12.97;;;11.77;;
13816;SDS011;6979;52.116;5.286;2023-05-10T21:31:30;12.37;;;10.43;;
13816;SDS011;6979;52.116;5.286;2023-05-10T21:33:59;12.47;;;11.27;;
13816;SDS011;6979;52.116;5.286;2023-05-10T21:36:26;12.33;;;11.00;;
13816;SDS011;6979;52.116;5.286;2023-05-10T21:38:53;13.07;;;11.77;;
13816;SDS011;6979;52.116;5.286;2023-05-10T21:41:19;12.63;;;11.03;;
13816;SDS011;6979;52.116;5.286;2023-05-10T21:43:46;12.93;;;11.67;;
13816;SDS011;6979;52.116;5.286;2023-05-10T21:46:13;12.53;;;11.33;;
13816;SDS011;6979;52.116;5.286;2023-05-10T21:48:40;12.17;;;10.97;;
13816;SDS011;6979;52.116;5.286;2023-05-10T21:51:08;11.80;;;10.77;;
13816;SDS011;6979;52.116;5.286;2023-05-10T21:53:36;12.30;;;11.20;;
13816;SDS011;6979;52.116;5.286;2023-05-10T21:56:04;13.00;;;11.60;;
13816;SDS011;6979;52.116;5.286;2023-05-10T21:58:31;13.13;;;11.83;;
13816;SDS011;6979;52.116;5.286;2023-05-10T22:01:02;12.70;;;11.50;;
13816;SDS011;6979;52.116;5.286;2023-05-10T22:03:30;12.17;;;10.90;;
13816;SDS011;6979;52.116;5.286;2023-05-10T22:05:56;12.80;;;11.30;;
13816;SDS011;6979;52.116;5.286;2023-05-10T22:08:26;13.80;;;12.40;;
13816;SDS011;6979;52.116;5.286;2023-05-10T22:10:57;12.97;;;11.70;;
13816;SDS011;6979;52.116;5.286;2023-05-10T22:13:23;13.70;;;12.37;;
13816;SDS011;6979;52.116;5.286;2023-05-10T22:15:50;12.90;;;11.53;;
13816;SDS011;6979;52.116;5.286;2023-05-10T22:18:17;14.07;;;12.63;;
13816;SDS011;6979;52.116;5.286;2023-05-10T22:20:45;13.27;;;12.03;;
13816;SDS011;6979;52.116;5.286;2023-05-10T22:23:12;13.03;;;11.83;;
13816;SDS011;6979;52.116;5.286;2023-05-10T22:25:40;12.23;;;11.00;;
13816;SDS011;6979;52.116;5.286;2023-05-10T22:28:07;13.33;;;12.07;;
13816;SDS011;6979;52.116;5.286;2023-05-10T22:30:34;15.73;;;14.13;;
13816;SDS011;6979;52.116;5.286;2023-05-10T22:33:01;13.57;;;12.27;;
13816;SDS011;6979;52.116;5.286;2023-05-10T22:35:29;15.70;;;13.53;;
13816;SDS011;6979;52.116;5.286;2023-05-10T22:37:56;14.60;;;13.20;;
13816;SDS011;6979;52.116;5.286;2023-05-10T22:40:23;13.50;;;12.10;;
13816;SDS011;6979;52.116;5.286;2023-05-10T22:42:51;13.90;;;12.37;;
13816;SDS011;6979;52.116;5.286;2023-05-10T22:45:18;15.73;;;13.13;;
13816;SDS011;6979;52.116;5.286;2023-05-10T22:47:45;12.97;;;11.77;;
13816;SDS011;6979;52.116;5.286;2023-05-10T22:50:12;14.03;;;12.63;;
13816;SDS011;6979;52.116;5.286;2023-05-10T22:52:39;14.03;;;12.63;;
13816;SDS011;6979;52.116;5.286;2023-05-10T22:55:06;13.63;;;12.23;;
13816;SDS011;6979;52.116;5.286;2023-05-10T23:00:47;14.70;;;13.20;;
13816;SDS011;6979;52.116;5.286;2023-05-10T23:03:17;12.77;;;11.47;;
13816;SDS011;6979;52.116;5.286;2023-05-10T23:08:45;12.63;;;11.43;;
13816;SDS011;6979;52.116;5.286;2023-05-10T23:11:13;13.97;;;12.40;;
13816;SDS011;6979;52.116;5.286;2023-05-10T23:13:41;14.37;;;12.97;;
13816;SDS011;6979;52.116;5.286;2023-05-10T23:16:09;14.20;;;12.33;;
13816;SDS011;6979;52.116;5.286;2023-05-10T23:18:36;15.17;;;13.67;;
13816;SDS011;6979;52.116;5.286;2023-05-10T23:23:56;14.00;;;12.63;;
13816;SDS011;6979;52.116;5.286;2023-05-10T23:26:28;13.17;;;11.83;;
13816;SDS011;6979;52.116;5.286;2023-05-10T23:29:07;15.07;;;12.90;;
13816;SDS011;6979;52.116;5.286;2023-05-10T23:31:33;13.90;;;12.53;;
13816;SDS011;6979;52.116;5.286;2023-05-10T23:34:03;14.77;;;13.33;;
13816;SDS011;6979;52.116;5.286;2023-05-10T23:36:56;13.43;;;12.17;;
13816;SDS011;6979;52.116;5.286;2023-05-10T23:40:01;14.40;;;12.90;;
13816;SDS011;6979;52.116;5.286;2023-05-10T23:42:11;14.93;;;13.43;;
13816;SDS011;6979;52.116;5.286;2023-05-10T23:44:39;14.87;;;13.47;;
13816;SDS011;6979;52.116;5.286;2023-05-10T23:47:06;14.80;;;13.23;;
13816;SDS011;6979;52.116;5.286;2023-05-10T23:49:33;14.53;;;13.07;;
13816;SDS011;6979;52.116;5.286;2023-05-10T23:52:00;15.03;;;12.93;;
13816;SDS011;6979;52.116;5.286;2023-05-10T23:54:28;14.50;;;13.00;;
13816;SDS011;6979;52.116;5.286;2023-05-10T23:56:55;14.67;;;13.17;;
13816;SDS011;6979;52.116;5.286;2023-05-10T23:59:22;15.53;;;13.90;;
